sensor_id;sensor_type;location;lat;lon;timestamp;P1;durP1;ratioP1;P2;durP2;ratioP2
30020;SDS011;16861;52.294;7.760;2024-01-15T00:01:57;10.75;;;3.78;;
30020;SDS011;16861;52.294;7.760;2024-01-15T00:04:23;14.23;;;4.07;;
30020;SDS011;16861;52.294;7.760;2024-01-15T00:06:50;6.78;;;2.92;;
30020;SDS011;16861;52.294;7.760;2024-01-15T00:09:17;7.63;;;2.38;;
30020;SDS011;16861;52.294;7.760;2024-01-15T00:11:43;9.05;;;2.75;;
30020;SDS011;16861;52.294;7.760;2024-01-15T00:14:10;9.57;;;2.60;;
30020;SDS011;16861;52.294;7.760;2024-01-15T00:16:36;11.77;;;2.75;;
30020;SDS011;16861;52.294;7.760;2024-01-15T00:19:03;11.80;;;2.00;;
30020;SDS011;16861;52.294;7.760;2024-01-15T00:21:29;6.97;;;1.83;;
30020;SDS011;16861;52.294;7.760;2024-01-15T00:23:56;13.40;;;2.47;;
30020;SDS011;16861;52.294;7.760;2024-01-15T00:29:00;12.32;;;2.53;;
30020;SDS011;16861;52.294;7.760;2024-01-15T00:31:27;12.90;;;2.17;;
30020;SDS011;16861;52.294;7.760;2024-01-15T00:33:55;8.02;;;1.63;;
30020;SDS011;16861;52.294;7.760;2024-01-15T00:36:22;10.93;;;2.60;;
30020;SDS011;16861;52.294;7.760;2024-01-15T00:38:49;10.38;;;2.10;;
30020;SDS011;16861;52.294;7.760;2024-01-15T00:41:15;5.82;;;1.77;;
30020;SDS011;16861;52.294;7.760;2024-01-15T00:43:42;11.65;;;2.03;;
30020;SDS011;16861;52.294;7.760;2024-01-15T00:46:08;12.23;;;2.10;;
30020;SDS011;16861;52.294;7.760;2024-01-15T00:48:35;8.82;;;2.40;;
30020;SDS011;16861;52.294;7.760;2024-01-15T00:51:01;9.65;;;2.05;;
30020;SDS011;16861;52.294;7.760;2024-01-15T00:53:28;10.40;;;2.70;;
30020;SDS011;16861;52.294;7.760;2024-01-15T00:55:55;5.95;;;1.80;;
30020;SDS011;16861;52.294;7.760;2024-01-15T00:58:22;10.35;;;2.53;;
30020;SDS011;16861;52.294;7.760;2024-01-15T01:00:48;7.78;;;2.40;;
30020;SDS011;16861;52.294;7.760;2024-01-15T01:03:15;10.68;;;1.85;;
30020;SDS011;16861;52.294;7.760;2024-01-15T01:05:42;9.93;;;2.00;;
30020;SDS011;16861;52.294;7.760;2024-01-15T01:08:08;5.78;;;2.17;;
30020;SDS011;16861;52.294;7.760;2024-01-15T01:10:35;10.40;;;2.22;;
30020;SDS011;16861;52.294;7.760;2024-01-15T01:13:01;8.07;;;2.47;;
30020;SDS011;16861;52.294;7.760;2024-01-15T01:15:28;13.07;;;2.70;;
30020;SDS011;16861;52.294;7.760;2024-01-15T01:17:54;13.10;;;3.30;;
30020;SDS011;16861;52.294;7.760;2024-01-15T01:20:21;8.63;;;2.28;;
30020;SDS011;16861;52.294;7.760;2024-01-15T01:22:47;11.65;;;3.05;;
30020;SDS011;16861;52.294;7.760;2024-01-15T01:25:14;8.82;;;2.97;;
30020;SDS011;16861;52.294;7.760;2024-01-15T01:27:40;4.55;;;2.55;;
30020;SDS011;16861;52.294;7.760;2024-01-15T01:30:08;14.60;;;3.28;;
30020;SDS011;16861;52.294;7.760;2024-01-15T01:32:36;9.52;;;3.25;;
30020;SDS011;16861;52.294;7.760;2024-01-15T01:35:02;11.23;;;2.88;;
30020;SDS011;16861;52.294;7.760;2024-01-15T01:37:29;10.20;;;3.45;;
30020;SDS011;16861;52.294;7.760;2024-01-15T01:39:55;8.57;;;2.35;;
30020;SDS011;16861;52.294;7.760;2024-01-15T01:42:22;13.10;;;2.75;;
30020;SDS011;16861;52.294;7.760;2024-01-15T01:44:48;5.75;;;2.22;;
30020;SDS011;16861;52.294;7.760;2024-01-15T01:47:15;12.68;;;2.17;;
30020;SDS011;16861;52.294;7.760;2024-01-15T01:49:41;8.63;;;2.30;;
30020;SDS011;16861;52.294;7.760;2024-01-15T01:52:09;9.13;;;2.45;;
30020;SDS011;16861;52.294;7.760;2024-01-15T01:54:36;12.60;;;2.38;;
30020;SDS011;16861;52.294;7.760;2024-01-15T01:57:04;10.02;;;2.28;;
30020;SDS011;16861;52.294;7.760;2024-01-15T01:59:32;8.07;;;1.92;;
30020;SDS011;16861;52.294;7.760;2024-01-15T02:02:02;13.60;;;2.17;;
30020;SDS011;16861;52.294;7.760;2024-01-15T02:04:30;6.40;;;2.00;;
30020;SDS011;16861;52.294;7.760;2024-01-15T02:06:58;9.02;;;2.55;;
30020;SDS011;16861;52.294;7.760;2024-01-15T02:09:25;5.18;;;1.92;;
30020;SDS011;16861;52.294;7.760;2024-01-15T02:11:52;8.60;;;2.28;;
30020;SDS011;16861;52.294;7.760;2024-01-15T02:14:19;6.45;;;1.52;;
30020;SDS011;16861;52.294;7.760;2024-01-15T02:16:45;7.97;;;2.17;;
30020;SDS011;16861;52.294;7.760;2024-01-15T02:19:15;10.10;;;1.80;;
30020;SDS011;16861;52.294;7.760;2024-01-15T02:21:43;11.65;;;1.67;;
30020;SDS011;16861;52.294;7.760;2024-01-15T02:24:10;11.55;;;2.35;;
30020;SDS011;16861;52.294;7.760;2024-01-15T02:26:37;8.65;;;1.83;;
30020;SDS011;16861;52.294;7.760;2024-01-15T02:29:04;6.47;;;1.58;;
30020;SDS011;16861;52.294;7.760;2024-01-15T02:31:35;7.93;;;1.63;;
30020;SDS011;16861;52.294;7.760;2024-01-15T02:34:02;7.43;;;1.95;;
30020;SDS011;16861;52.294;7.760;2024-01-15T02:36:29;9.25;;;1.83;;
30020;SDS011;16861;52.294;7.760;2024-01-15T02:38:55;9.45;;;1.80;;
30020;SDS011;16861;52.294;7.760;2024-01-15T02:41:22;11.68;;;1.90;;
30020;SDS011;16861;52.294;7.760;2024-01-15T02:43:48;11.93;;;1.67;;
30020;SDS011;16861;52.294;7.760;2024-01-15T02:46:15;9.60;;;2.35;;
30020;SDS011;16861;52.294;7.760;2024-01-15T02:48:42;9.95;;;1.90;;
30020;SDS011;16861;52.294;7.760;2024-01-15T02:51:09;10.80;;;1.60;;
30020;SDS011;16861;52.294;7.760;2024-01-15T02:53:35;12.23;;;2.45;;
30020;SDS011;16861;52.294;7.760;2024-01-15T02:56:02;10.82;;;1.80;;
30020;SDS011;16861;52.294;7.760;2024-01-15T02:58:29;15.60;;;2.22;;
30020;SDS011;16861;52.294;7.760;2024-01-15T03:00:55;10.10;;;2.25;;
30020;SDS011;16861;52.294;7.760;2024-01-15T03:03:22;11.27;;;1.90;;
30020;SDS011;16861;52.294;7.760;2024-01-15T03:05:48;12.35;;;2.13;;
30020;SDS011;16861;52.294;7.760;2024-01-15T03:08:15;10.57;;;2.13;;
30020;SDS011;16861;52.294;7.760;2024-01-15T03:10:41;6.95;;;1.90;;
30020;SDS011;16861;52.294;7.760;2024-01-15T03:13:08;5.05;;;1.95;;
30020;SDS011;16861;52.294;7.760;2024-01-15T03:15:34;12.77;;;2.30;;
30020;SDS011;16861;52.294;7.760;2024-01-15T03:18:01;10.38;;;2.03;;
30020;SDS011;16861;52.294;7.760;2024-01-15T03:20:27;14.10;;;1.98;;
30020;SDS011;16861;52.294;7.760;2024-01-15T03:22:54;9.73;;;2.40;;
30020;SDS011;16861;52.294;7.760;2024-01-15T03:25:20;8.60;;;2.17;;
30020;SDS011;16861;52.294;7.760;2024-01-15T03:27:46;10.13;;;1.88;;
30020;SDS011;16861;52.294;7.760;2024-01-15T03:30:13;11.52;;;1.90;;
30020;SDS011;16861;52.294;7.760;2024-01-15T03:32:40;11.55;;;1.85;;
30020;SDS011;16861;52.294;7.760;2024-01-15T03:35:06;5.25;;;1.50;;
30020;SDS011;16861;52.294;7.760;2024-01-15T03:37:33;9.75;;;1.90;;
30020;SDS011;16861;52.294;7.760;2024-01-15T03:40:00;11.10;;;2.38;;
30020;SDS011;16861;52.294;7.760;2024-01-15T03:42:26;8.80;;;1.67;;
30020;SDS011;16861;52.294;7.760;2024-01-15T03:44:53;15.55;;;2.65;;
30020;SDS011;16861;52.294;7.760;2024-01-15T03:47:19;10.98;;;2.28;;
30020;SDS011;16861;52.294;7.760;2024-01-15T03:49:46;10.73;;;2.40;;
30020;SDS011;16861;52.294;7.760;2024-01-15T03:52:12;11.32;;;2.08;;
30020;SDS011;16861;52.294;7.760;2024-01-15T03:54:38;7.60;;;2.00;;
30020;SDS011;16861;52.294;7.760;2024-01-15T03:57:05;11.30;;;1.77;;
30020;SDS011;16861;52.294;7.760;2024-01-15T03:59:31;14.63;;;3.05;;
30020;SDS011;16861;52.294;7.760;2024-01-15T04:01:58;7.80;;;2.53;;
30020;SDS011;16861;52.294;7.760;2024-01-15T04:04:24;8.45;;;1.92;;
30020;SDS011;16861;52.294;7.760;2024-01-15T04:06:51;12.15;;;2.08;;
30020;SDS011;16861;52.294;7.760;2024-01-15T04:09:18;7.50;;;1.92;;
30020;SDS011;16861;52.294;7.760;2024-01-15T04:11:44;11.95;;;2.28;;
30020;SDS011;16861;52.294;7.760;2024-01-15T04:14:11;10.77;;;2.55;;
30020;SDS011;16861;52.294;7.760;2024-01-15T04:16:37;12.35;;;2.00;;
30020;SDS011;16861;52.294;7.760;2024-01-15T04:19:04;11.57;;;2.47;;
30020;SDS011;16861;52.294;7.760;2024-01-15T04:21:31;8.60;;;2.05;;
30020;SDS011;16861;52.294;7.760;2024-01-15T04:23:57;8.98;;;1.92;;
30020;SDS011;16861;52.294;7.760;2024-01-15T04:26:24;8.73;;;2.22;;
30020;SDS011;16861;52.294;7.760;2024-01-15T04:28:51;13.60;;;2.30;;
30020;SDS011;16861;52.294;7.760;2024-01-15T04:31:22;9.80;;;2.20;;
30020;SDS011;16861;52.294;7.760;2024-01-15T04:33:49;6.85;;;1.63;;
30020;SDS011;16861;52.294;7.760;2024-01-15T04:36:16;9.60;;;2.03;;
30020;SDS011;16861;52.294;7.760;2024-01-15T04:38:43;7.65;;;1.45;;
30020;SDS011;16861;52.294;7.760;2024-01-15T04:41:11;9.40;;;1.73;;
30020;SDS011;16861;52.294;7.760;2024-01-15T04:43:41;6.72;;;1.95;;
30020;SDS011;16861;52.294;7.760;2024-01-15T04:46:08;8.27;;;1.98;;
30020;SDS011;16861;52.294;7.760;2024-01-15T04:48:34;9.13;;;1.98;;
30020;SDS011;16861;52.294;7.760;2024-01-15T04:51:03;10.20;;;2.25;;
30020;SDS011;16861;52.294;7.760;2024-01-15T04:53:31;7.70;;;1.77;;
30020;SDS011;16861;52.294;7.760;2024-01-15T04:55:57;10.93;;;1.73;;
30020;SDS011;16861;52.294;7.760;2024-01-15T04:58:24;7.35;;;1.70;;
30020;SDS011;16861;52.294;7.760;2024-01-15T05:00:53;6.88;;;1.50;;
30020;SDS011;16861;52.294;7.760;2024-01-15T05:03:20;6.35;;;1.45;;
30020;SDS011;16861;52.294;7.760;2024-01-15T05:05:47;7.97;;;1.20;;
30020;SDS011;16861;52.294;7.760;2024-01-15T05:08:14;9.93;;;2.15;;
30020;SDS011;16861;52.294;7.760;2024-01-15T05:10:40;6.90;;;1.80;;
30020;SDS011;16861;52.294;7.760;2024-01-15T05:13:06;3.38;;;1.27;;
30020;SDS011;16861;52.294;7.760;2024-01-15T05:15:33;8.65;;;1.20;;
30020;SDS011;16861;52.294;7.760;2024-01-15T05:17:59;5.47;;;1.50;;
30020;SDS011;16861;52.294;7.760;2024-01-15T05:20:26;4.28;;;1.35;;
30020;SDS011;16861;52.294;7.760;2024-01-15T05:22:53;4.10;;;1.73;;
30020;SDS011;16861;52.294;7.760;2024-01-15T05:25:19;4.82;;;1.20;;
30020;SDS011;16861;52.294;7.760;2024-01-15T05:27:49;5.30;;;1.58;;
30020;SDS011;16861;52.294;7.760;2024-01-15T05:30:15;4.43;;;1.45;;
30020;SDS011;16861;52.294;7.760;2024-01-15T05:32:43;5.47;;;1.70;;
30020;SDS011;16861;52.294;7.760;2024-01-15T05:35:09;5.47;;;1.80;;
30020;SDS011;16861;52.294;7.760;2024-01-15T05:37:36;9.40;;;1.60;;
30020;SDS011;16861;52.294;7.760;2024-01-15T05:40:02;7.50;;;2.05;;
30020;SDS011;16861;52.294;7.760;2024-01-15T05:42:30;9.25;;;2.50;;
30020;SDS011;16861;52.294;7.760;2024-01-15T05:44:59;5.70;;;2.10;;
30020;SDS011;16861;52.294;7.760;2024-01-15T05:47:26;6.68;;;1.98;;
30020;SDS011;16861;52.294;7.760;2024-01-15T05:49:53;6.00;;;2.13;;
30020;SDS011;16861;52.294;7.760;2024-01-15T05:52:21;4.93;;;1.63;;
30020;SDS011;16861;52.294;7.760;2024-01-15T05:54:48;5.30;;;1.63;;
30020;SDS011;16861;52.294;7.760;2024-01-15T05:57:15;5.07;;;1.80;;
30020;SDS011;16861;52.294;7.760;2024-01-15T05:59:42;7.40;;;2.03;;
30020;SDS011;16861;52.294;7.760;2024-01-15T06:02:10;6.90;;;2.10;;
30020;SDS011;16861;52.294;7.760;2024-01-15T06:04:37;8.70;;;2.20;;
30020;SDS011;16861;52.294;7.760;2024-01-15T06:07:04;13.77;;;2.20;;
30020;SDS011;16861;52.294;7.760;2024-01-15T06:09:30;8.07;;;1.98;;
30020;SDS011;16861;52.294;7.760;2024-01-15T06:11:58;6.90;;;1.85;;
30020;SDS011;16861;52.294;7.760;2024-01-15T06:14:24;12.30;;;2.47;;
30020;SDS011;16861;52.294;7.760;2024-01-15T06:19:48;9.82;;;2.10;;
30020;SDS011;16861;52.294;7.760;2024-01-15T06:22:15;10.27;;;2.05;;
30020;SDS011;16861;52.294;7.760;2024-01-15T06:24:42;12.25;;;3.03;;
30020;SDS011;16861;52.294;7.760;2024-01-15T06:27:08;9.52;;;2.15;;
30020;SDS011;16861;52.294;7.760;2024-01-15T06:29:37;10.82;;;2.20;;
30020;SDS011;16861;52.294;7.760;2024-01-15T06:32:04;9.02;;;2.03;;
30020;SDS011;16861;52.294;7.760;2024-01-15T06:34:31;9.13;;;2.10;;
30020;SDS011;16861;52.294;7.760;2024-01-15T06:36:57;8.63;;;2.80;;
30020;SDS011;16861;52.294;7.760;2024-01-15T06:39:24;10.20;;;3.20;;
30020;SDS011;16861;52.294;7.760;2024-01-15T06:41:51;11.65;;;2.17;;
30020;SDS011;16861;52.294;7.760;2024-01-15T06:44:17;11.00;;;2.42;;
30020;SDS011;16861;52.294;7.760;2024-01-15T06:46:44;7.22;;;2.42;;
30020;SDS011;16861;52.294;7.760;2024-01-15T06:49:11;7.43;;;1.70;;
30020;SDS011;16861;52.294;7.760;2024-01-15T06:51:38;10.75;;;1.90;;
30020;SDS011;16861;52.294;7.760;2024-01-15T06:54:05;5.78;;;1.73;;
30020;SDS011;16861;52.294;7.760;2024-01-15T06:56:31;3.88;;;1.67;;
30020;SDS011;16861;52.294;7.760;2024-01-15T06:58:58;5.10;;;1.85;;
30020;SDS011;16861;52.294;7.760;2024-01-15T07:01:25;7.72;;;1.58;;
30020;SDS011;16861;52.294;7.760;2024-01-15T07:03:51;6.57;;;1.77;;
30020;SDS011;16861;52.294;7.760;2024-01-15T07:06:18;4.28;;;1.35;;
30020;SDS011;16861;52.294;7.760;2024-01-15T07:08:44;4.90;;;1.77;;
30020;SDS011;16861;52.294;7.760;2024-01-15T07:11:12;6.68;;;1.70;;
30020;SDS011;16861;52.294;7.760;2024-01-15T07:13:38;4.03;;;1.67;;
30020;SDS011;16861;52.294;7.760;2024-01-15T07:16:05;4.88;;;1.67;;
30020;SDS011;16861;52.294;7.760;2024-01-15T07:18:31;6.68;;;2.03;;
30020;SDS011;16861;52.294;7.760;2024-01-15T07:20:58;7.30;;;2.50;;
30020;SDS011;16861;52.294;7.760;2024-01-15T07:23:25;4.93;;;1.95;;
30020;SDS011;16861;52.294;7.760;2024-01-15T07:25:55;4.78;;;1.52;;
30020;SDS011;16861;52.294;7.760;2024-01-15T07:28:22;6.05;;;1.88;;
30020;SDS011;16861;52.294;7.760;2024-01-15T07:30:48;5.60;;;1.90;;
30020;SDS011;16861;52.294;7.760;2024-01-15T07:33:15;4.10;;;1.63;;
30020;SDS011;16861;52.294;7.760;2024-01-15T07:35:42;4.72;;;2.35;;
30020;SDS011;16861;52.294;7.760;2024-01-15T07:38:09;10.70;;;2.10;;
30020;SDS011;16861;52.294;7.760;2024-01-15T07:40:37;7.85;;;2.53;;
30020;SDS011;16861;52.294;7.760;2024-01-15T07:43:04;5.47;;;2.47;;
30020;SDS011;16861;52.294;7.760;2024-01-15T07:45:30;6.97;;;2.13;;
30020;SDS011;16861;52.294;7.760;2024-01-15T07:47:57;6.55;;;1.98;;
30020;SDS011;16861;52.294;7.760;2024-01-15T07:50:24;6.78;;;1.77;;
30020;SDS011;16861;52.294;7.760;2024-01-15T07:52:50;5.30;;;2.25;;
30020;SDS011;16861;52.294;7.760;2024-01-15T07:55:17;6.50;;;1.67;;
30020;SDS011;16861;52.294;7.760;2024-01-15T07:57:43;3.13;;;1.75;;
30020;SDS011;16861;52.294;7.760;2024-01-15T08:00:18;3.90;;;2.00;;
30020;SDS011;16861;52.294;7.760;2024-01-15T08:02:45;3.13;;;1.90;;
30020;SDS011;16861;52.294;7.760;2024-01-15T08:05:11;2.60;;;1.95;;
30020;SDS011;16861;52.294;7.760;2024-01-15T08:07:38;3.22;;;1.80;;
30020;SDS011;16861;52.294;7.760;2024-01-15T08:10:04;2.85;;;2.00;;
30020;SDS011;16861;52.294;7.760;2024-01-15T08:12:31;2.70;;;1.50;;
30020;SDS011;16861;52.294;7.760;2024-01-15T08:14:58;3.05;;;1.70;;
30020;SDS011;16861;52.294;7.760;2024-01-15T08:17:24;2.42;;;1.40;;
30020;SDS011;16861;52.294;7.760;2024-01-15T08:19:54;5.93;;;1.60;;
30020;SDS011;16861;52.294;7.760;2024-01-15T08:22:21;2.40;;;1.80;;
30020;SDS011;16861;52.294;7.760;2024-01-15T08:24:47;2.65;;;1.92;;
30020;SDS011;16861;52.294;7.760;2024-01-15T08:27:14;5.45;;;2.15;;
30020;SDS011;16861;52.294;7.760;2024-01-15T08:29:41;5.15;;;2.13;;
30020;SDS011;16861;52.294;7.760;2024-01-15T08:32:07;3.70;;;2.00;;
30020;SDS011;16861;52.294;7.760;2024-01-15T08:34:34;6.68;;;2.13;;
30020;SDS011;16861;52.294;7.760;2024-01-15T08:37:01;4.78;;;2.40;;
30020;SDS011;16861;52.294;7.760;2024-01-15T08:39:28;6.95;;;2.30;;
30020;SDS011;16861;52.294;7.760;2024-01-15T08:41:55;5.40;;;3.05;;
30020;SDS011;16861;52.294;7.760;2024-01-15T08:44:21;8.60;;;2.88;;
30020;SDS011;16861;52.294;7.760;2024-01-15T08:46:48;6.70;;;3.22;;
30020;SDS011;16861;52.294;7.760;2024-01-15T08:49:14;5.93;;;3.28;;
30020;SDS011;16861;52.294;7.760;2024-01-15T08:51:41;7.57;;;3.55;;
30020;SDS011;16861;52.294;7.760;2024-01-15T08:54:07;7.80;;;3.40;;
30020;SDS011;16861;52.294;7.760;2024-01-15T08:56:34;6.60;;;3.35;;
30020;SDS011;16861;52.294;7.760;2024-01-15T08:59:01;11.57;;;4.10;;
30020;SDS011;16861;52.294;7.760;2024-01-15T09:01:27;6.63;;;3.67;;
30020;SDS011;16861;52.294;7.760;2024-01-15T09:03:54;11.05;;;3.70;;
30020;SDS011;16861;52.294;7.760;2024-01-15T09:06:20;11.55;;;4.40;;
30020;SDS011;16861;52.294;7.760;2024-01-15T09:08:47;7.63;;;3.42;;
30020;SDS011;16861;52.294;7.760;2024-01-15T09:11:14;10.02;;;3.60;;
30020;SDS011;16861;52.294;7.760;2024-01-15T09:13:40;9.32;;;3.78;;
30020;SDS011;16861;52.294;7.760;2024-01-15T09:16:07;9.35;;;4.00;;
30020;SDS011;16861;52.294;7.760;2024-01-15T09:18:33;10.05;;;3.55;;
30020;SDS011;16861;52.294;7.760;2024-01-15T09:21:00;8.30;;;3.17;;
30020;SDS011;16861;52.294;7.760;2024-01-15T09:23:29;10.35;;;3.45;;
30020;SDS011;16861;52.294;7.760;2024-01-15T09:25:55;11.82;;;3.50;;
30020;SDS011;16861;52.294;7.760;2024-01-15T09:28:22;9.02;;;3.28;;
30020;SDS011;16861;52.294;7.760;2024-01-15T09:30:49;9.85;;;3.20;;
30020;SDS011;16861;52.294;7.760;2024-01-15T09:33:15;10.82;;;3.47;;
30020;SDS011;16861;52.294;7.760;2024-01-15T09:35:42;9.73;;;3.22;;
30020;SDS011;16861;52.294;7.760;2024-01-15T09:38:08;9.50;;;3.00;;
30020;SDS011;16861;52.294;7.760;2024-01-15T09:40:35;12.45;;;2.97;;
30020;SDS011;16861;52.294;7.760;2024-01-15T09:43:04;6.15;;;2.70;;
30020;SDS011;16861;52.294;7.760;2024-01-15T09:45:31;8.43;;;2.90;;
30020;SDS011;16861;52.294;7.760;2024-01-15T09:47:58;7.88;;;3.22;;
30020;SDS011;16861;52.294;7.760;2024-01-15T09:50:25;12.43;;;2.72;;
30020;SDS011;16861;52.294;7.760;2024-01-15T09:52:51;9.32;;;2.97;;
30020;SDS011;16861;52.294;7.760;2024-01-15T09:55:18;4.95;;;2.63;;
30020;SDS011;16861;52.294;7.760;2024-01-15T09:57:45;7.50;;;2.42;;
30020;SDS011;16861;52.294;7.760;2024-01-15T10:00:17;7.32;;;1.92;;
30020;SDS011;16861;52.294;7.760;2024-01-15T10:02:44;7.63;;;2.28;;
30020;SDS011;16861;52.294;7.760;2024-01-15T10:05:10;9.13;;;2.17;;
30020;SDS011;16861;52.294;7.760;2024-01-15T10:07:37;5.07;;;1.98;;
30020;SDS011;16861;52.294;7.760;2024-01-15T10:10:06;10.98;;;2.45;;
30020;SDS011;16861;52.294;7.760;2024-01-15T10:12:33;8.43;;;2.13;;
30020;SDS011;16861;52.294;7.760;2024-01-15T10:15:01;11.93;;;2.25;;
30020;SDS011;16861;52.294;7.760;2024-01-15T10:17:27;5.88;;;2.47;;
30020;SDS011;16861;52.294;7.760;2024-01-15T10:19:54;8.85;;;2.30;;
30020;SDS011;16861;52.294;7.760;2024-01-15T10:22:21;6.82;;;2.45;;
30020;SDS011;16861;52.294;7.760;2024-01-15T10:24:48;6.22;;;2.30;;
30020;SDS011;16861;52.294;7.760;2024-01-15T10:27:15;6.47;;;1.90;;
30020;SDS011;16861;52.294;7.760;2024-01-15T10:29:42;9.98;;;2.13;;
30020;SDS011;16861;52.294;7.760;2024-01-15T10:32:09;8.13;;;2.35;;
30020;SDS011;16861;52.294;7.760;2024-01-15T10:34:39;5.05;;;1.90;;
30020;SDS011;16861;52.294;7.760;2024-01-15T10:37:08;7.45;;;1.95;;
30020;SDS011;16861;52.294;7.760;2024-01-15T10:39:35;7.85;;;2.40;;
30020;SDS011;16861;52.294;7.760;2024-01-15T10:42:03;8.82;;;2.25;;
30020;SDS011;16861;52.294;7.760;2024-01-15T10:44:30;7.63;;;2.30;;
30020;SDS011;16861;52.294;7.760;2024-01-15T10:46:57;5.15;;;2.15;;
30020;SDS011;16861;52.294;7.760;2024-01-15T10:49:23;5.43;;;2.38;;
30020;SDS011;16861;52.294;7.760;2024-01-15T10:51:58;3.50;;;1.90;;
30020;SDS011;16861;52.294;7.760;2024-01-15T10:54:25;5.80;;;2.03;;
30020;SDS011;16861;52.294;7.760;2024-01-15T10:56:54;4.68;;;1.50;;
30020;SDS011;16861;52.294;7.760;2024-01-15T10:59:22;9.57;;;2.05;;
30020;SDS011;16861;52.294;7.760;2024-01-15T11:01:49;4.70;;;2.05;;
30020;SDS011;16861;52.294;7.760;2024-01-15T11:04:20;7.15;;;2.28;;
30020;SDS011;16861;52.294;7.760;2024-01-15T11:06:50;10.43;;;2.55;;
30020;SDS011;16861;52.294;7.760;2024-01-15T11:09:20;8.90;;;2.22;;
30020;SDS011;16861;52.294;7.760;2024-01-15T11:11:46;9.57;;;2.72;;
30020;SDS011;16861;52.294;7.760;2024-01-15T11:17:00;7.05;;;2.10;;
30020;SDS011;16861;52.294;7.760;2024-01-15T11:22:10;9.75;;;2.40;;
30020;SDS011;16861;52.294;7.760;2024-01-15T11:25:18;7.05;;;2.60;;
30020;SDS011;16861;52.294;7.760;2024-01-15T11:27:44;6.93;;;2.70;;
30020;SDS011;16861;52.294;7.760;2024-01-15T11:30:24;8.05;;;2.70;;
30020;SDS011;16861;52.294;7.760;2024-01-15T11:32:52;6.72;;;2.50;;
30020;SDS011;16861;52.294;7.760;2024-01-15T11:35:18;6.50;;;2.33;;
30020;SDS011;16861;52.294;7.760;2024-01-15T11:40:19;6.03;;;2.38;;
30020;SDS011;16861;52.294;7.760;2024-01-15T11:42:47;7.72;;;2.67;;
30020;SDS011;16861;52.294;7.760;2024-01-15T11:45:19;8.10;;;2.50;;
30020;SDS011;16861;52.294;7.760;2024-01-15T11:50:44;5.50;;;2.83;;
30020;SDS011;16861;52.294;7.760;2024-01-15T11:53:25;8.10;;;2.40;;
30020;SDS011;16861;52.294;7.760;2024-01-15T11:55:58;7.57;;;3.10;;
30020;SDS011;16861;52.294;7.760;2024-01-15T11:58:26;5.53;;;2.65;;
30020;SDS011;16861;52.294;7.760;2024-01-15T12:00:53;3.78;;;2.22;;
30020;SDS011;16861;52.294;7.760;2024-01-15T12:03:21;7.05;;;2.60;;
30020;SDS011;16861;52.294;7.760;2024-01-15T12:05:48;8.48;;;3.15;;
30020;SDS011;16861;52.294;7.760;2024-01-15T12:08:20;10.50;;;2.80;;
30020;SDS011;16861;52.294;7.760;2024-01-15T12:10:47;7.88;;;2.72;;
30020;SDS011;16861;52.294;7.760;2024-01-15T12:13:14;8.88;;;2.63;;
30020;SDS011;16861;52.294;7.760;2024-01-15T12:15:42;8.48;;;3.10;;
30020;SDS011;16861;52.294;7.760;2024-01-15T12:18:11;10.48;;;2.05;;
30020;SDS011;16861;52.294;7.760;2024-01-15T12:20:39;6.70;;;2.10;;
30020;SDS011;16861;52.294;7.760;2024-01-15T12:23:06;6.65;;;2.00;;
30020;SDS011;16861;52.294;7.760;2024-01-15T12:25:35;3.65;;;1.90;;
30020;SDS011;16861;52.294;7.760;2024-01-15T12:28:03;6.28;;;2.60;;
30020;SDS011;16861;52.294;7.760;2024-01-15T12:30:30;7.07;;;2.08;;
30020;SDS011;16861;52.294;7.760;2024-01-15T12:33:02;6.50;;;2.40;;
30020;SDS011;16861;52.294;7.760;2024-01-15T12:35:35;7.00;;;1.75;;
30020;SDS011;16861;52.294;7.760;2024-01-15T12:38:03;5.82;;;2.03;;
30020;SDS011;16861;52.294;7.760;2024-01-15T12:40:30;7.15;;;1.95;;
30020;SDS011;16861;52.294;7.760;2024-01-15T12:42:59;6.20;;;1.80;;
30020;SDS011;16861;52.294;7.760;2024-01-15T12:45:26;7.90;;;2.00;;
30020;SDS011;16861;52.294;7.760;2024-01-15T12:47:53;5.60;;;1.95;;
30020;SDS011;16861;52.294;7.760;2024-01-15T12:50:23;4.00;;;1.95;;
30020;SDS011;16861;52.294;7.760;2024-01-15T12:52:50;4.38;;;1.98;;
30020;SDS011;16861;52.294;7.760;2024-01-15T12:55:17;8.90;;;2.03;;
30020;SDS011;16861;52.294;7.760;2024-01-15T12:57:44;6.22;;;2.10;;
30020;SDS011;16861;52.294;7.760;2024-01-15T13:00:12;7.82;;;1.83;;
30020;SDS011;16861;52.294;7.760;2024-01-15T13:02:41;3.10;;;1.83;;
30020;SDS011;16861;52.294;7.760;2024-01-15T13:05:09;4.57;;;1.98;;
30020;SDS011;16861;52.294;7.760;2024-01-15T13:07:41;6.45;;;1.77;;
30020;SDS011;16861;52.294;7.760;2024-01-15T13:10:08;5.10;;;1.67;;
30020;SDS011;16861;52.294;7.760;2024-01-15T13:12:36;4.22;;;1.40;;
30020;SDS011;16861;52.294;7.760;2024-01-15T13:15:04;3.17;;;1.35;;
30020;SDS011;16861;52.294;7.760;2024-01-15T13:17:31;3.15;;;1.15;;
30020;SDS011;16861;52.294;7.760;2024-01-15T13:19:58;3.13;;;1.35;;
30020;SDS011;16861;52.294;7.760;2024-01-15T13:22:25;3.72;;;1.30;;
30020;SDS011;16861;52.294;7.760;2024-01-15T13:24:59;4.30;;;1.27;;
30020;SDS011;16861;52.294;7.760;2024-01-15T13:27:26;4.90;;;1.45;;
30020;SDS011;16861;52.294;7.760;2024-01-15T13:29:53;3.85;;;1.10;;
30020;SDS011;16861;52.294;7.760;2024-01-15T13:32:28;4.20;;;1.60;;
30020;SDS011;16861;52.294;7.760;2024-01-15T13:34:55;3.53;;;1.50;;
30020;SDS011;16861;52.294;7.760;2024-01-15T13:37:23;3.30;;;1.50;;
30020;SDS011;16861;52.294;7.760;2024-01-15T13:39:53;6.68;;;1.10;;
30020;SDS011;16861;52.294;7.760;2024-01-15T13:42:20;4.05;;;1.33;;
30020;SDS011;16861;52.294;7.760;2024-01-15T13:44:50;6.72;;;1.60;;
30020;SDS011;16861;52.294;7.760;2024-01-15T13:47:17;3.05;;;1.00;;
30020;SDS011;16861;52.294;7.760;2024-01-15T13:49:43;3.85;;;1.20;;
30020;SDS011;16861;52.294;7.760;2024-01-15T13:52:10;3.38;;;0.95;;
30020;SDS011;16861;52.294;7.760;2024-01-15T13:54:37;6.55;;;0.93;;
30020;SDS011;16861;52.294;7.760;2024-01-15T13:57:15;2.72;;;1.23;;
30020;SDS011;16861;52.294;7.760;2024-01-15T13:59:42;2.28;;;1.00;;
30020;SDS011;16861;52.294;7.760;2024-01-15T14:02:09;3.30;;;1.13;;
30020;SDS011;16861;52.294;7.760;2024-01-15T14:04:37;2.35;;;0.80;;
30020;SDS011;16861;52.294;7.760;2024-01-15T14:07:04;3.30;;;1.08;;
30020;SDS011;16861;52.294;7.760;2024-01-15T14:09:31;4.43;;;0.80;;
30020;SDS011;16861;52.294;7.760;2024-01-15T14:11:58;6.47;;;0.93;;
30020;SDS011;16861;52.294;7.760;2024-01-15T14:14:24;1.80;;;0.73;;
30020;SDS011;16861;52.294;7.760;2024-01-15T14:16:51;1.35;;;0.68;;
30020;SDS011;16861;52.294;7.760;2024-01-15T14:19:18;3.90;;;1.05;;
30020;SDS011;16861;52.294;7.760;2024-01-15T14:21:45;1.73;;;0.80;;
30020;SDS011;16861;52.294;7.760;2024-01-15T14:24:12;2.55;;;0.95;;
30020;SDS011;16861;52.294;7.760;2024-01-15T14:26:38;2.28;;;0.98;;
30020;SDS011;16861;52.294;7.760;2024-01-15T14:29:05;2.78;;;1.15;;
30020;SDS011;16861;52.294;7.760;2024-01-15T14:31:32;4.70;;;1.40;;
30020;SDS011;16861;52.294;7.760;2024-01-15T14:34:00;3.17;;;1.40;;
30020;SDS011;16861;52.294;7.760;2024-01-15T14:36:29;5.07;;;0.85;;
30020;SDS011;16861;52.294;7.760;2024-01-15T14:38:56;4.35;;;1.20;;
30020;SDS011;16861;52.294;7.760;2024-01-15T14:41:23;3.00;;;0.95;;
30020;SDS011;16861;52.294;7.760;2024-01-15T14:43:49;4.25;;;1.15;;
30020;SDS011;16861;52.294;7.760;2024-01-15T14:46:16;3.63;;;1.30;;
30020;SDS011;16861;52.294;7.760;2024-01-15T14:48:42;3.47;;;0.82;;
30020;SDS011;16861;52.294;7.760;2024-01-15T14:51:11;4.93;;;0.98;;
30020;SDS011;16861;52.294;7.760;2024-01-15T14:53:38;2.50;;;0.82;;
30020;SDS011;16861;52.294;7.760;2024-01-15T14:56:05;5.15;;;1.00;;
30020;SDS011;16861;52.294;7.760;2024-01-15T14:58:32;7.28;;;1.40;;
30020;SDS011;16861;52.294;7.760;2024-01-15T15:00:58;9.43;;;1.45;;
30020;SDS011;16861;52.294;7.760;2024-01-15T15:03:25;8.48;;;1.48;;